createdAt,value
2023-07-25T00:03:59.086Z,1737.10
2023-07-25T00:09:03.847Z,1359.10
2023-07-25T00:14:07.443Z,1081.44
2023-07-25T00:19:10.862Z,958.91
2023-07-25T00:24:15.677Z,844.22
2023-07-25T00:29:19.187Z,767.25
2023-07-25T00:34:22.536Z,763.57
2023-07-25T00:39:27.290Z,886.08
2023-07-25T00:44:36.111Z,783.66
2023-07-25T00:49:44.145Z,800.56
2023-07-25T00:54:52.451Z,704.49
2023-07-25T00:59:58.124Z,657.34
2023-07-25T01:05:01.566Z,610.32
2023-07-25T01:10:06.801Z,524.49
2023-07-25T01:15:10.868Z,614.06
2023-07-25T01:20:14.521Z,677.00
2023-07-25T01:25:20.226Z,643.42
2023-07-25T01:30:23.649Z,588.23
2023-07-25T01:35:27.073Z,602.58
2023-07-25T01:40:33.965Z,553.44
2023-07-25T01:45:38.247Z,580.01
2023-07-25T01:50:42.030Z,664.48
2023-07-25T01:55:47.192Z,673.49
2023-07-25T02:00:50.557Z,631.34
2023-07-25T02:05:56.275Z,608.67
2023-07-25T02:11:01.027Z,560.49
2023-07-25T02:16:04.658Z,486.56
2023-07-25T02:21:08.191Z,441.55
2023-07-25T02:26:15.280Z,365.69
2023-07-25T02:31:18.699Z,286.52
2023-07-25T02:36:22.092Z,269.23
2023-07-25T02:41:29.320Z,257.67
2023-07-25T02:46:33.111Z,253.31
2023-07-25T02:51:36.529Z,283.55
2023-07-25T02:56:45.962Z,276.33
2023-07-25T03:01:51.784Z,284.38
2023-07-25T03:06:55.162Z,320.49
2023-07-25T03:11:59.985Z,292.68
2023-07-25T03:17:08.023Z,273.85
2023-07-25T03:22:11.461Z,298.45
2023-07-25T03:27:16.240Z,367.82
2023-07-25T03:32:19.667Z,377.40
2023-07-25T03:37:25.385Z,381.06
2023-07-25T03:42:30.173Z,384.28
2023-07-25T03:47:36.230Z,470.73
2023-07-25T03:52:41.989Z,437.56
2023-07-25T03:57:46.875Z,390.56
2023-07-25T04:03:00.678Z,369.53
2023-07-25T04:08:17.802Z,346.74
2023-07-25T04:13:22.515Z,308.51
2023-07-25T04:18:26.043Z,299.95
2023-07-25T04:23:29.470Z,288.12
2023-07-25T04:28:34.263Z,258.01
2023-07-25T04:33:39.897Z,217.76
2023-07-25T04:38:43.291Z,213.08
2023-07-25T04:43:48.114Z,196.23
2023-07-25T04:48:54.804Z,184.49
2023-07-25T04:53:58.226Z,176.80
2023-07-25T04:59:03.096Z,137.65
2023-07-25T05:04:09.931Z,147.51
2023-07-25T05:09:13.951Z,150.68
2023-07-25T05:14:18.820Z,150.89
2023-07-25T05:19:26.324Z,139.46
2023-07-25T05:24:29.843Z,120.59
2023-07-25T05:29:39.246Z,118.48
2023-07-25T05:34:44.957Z,119.58
2023-07-25T05:39:52.085Z,107.31
2023-07-25T05:45:02.429Z,95.79
2023-07-25T05:50:08.422Z,91.65
2023-07-25T05:55:14.604Z,83.63
2023-07-25T06:00:22.251Z,108.22
2023-07-25T06:05:28.546Z,94.67
2023-07-25T06:10:34.220Z,89.45
2023-07-25T06:15:39.209Z,83.17
2023-07-25T06:20:42.976Z,74.84
2023-07-25T06:25:49.487Z,60.57
2023-07-25T06:30:54.422Z,52.10
2023-07-25T06:36:01.449Z,52.08
2023-07-25T06:41:05.013Z,51.95
2023-07-25T06:46:09.971Z,49.44
2023-07-25T06:51:18.115Z,38.47
2023-07-25T06:56:23.776Z,33.49
2023-07-25T07:01:29.874Z,30.37
2023-07-25T07:06:35.889Z,26.66
2023-07-25T07:11:43.915Z,23.82
2023-07-25T07:16:48.758Z,26.90
2023-07-25T07:21:52.373Z,29.32
2023-07-25T07:26:58.330Z,21.83
2023-07-25T07:32:04.364Z,24.05
2023-07-25T07:37:10.272Z,20.05
2023-07-25T07:42:15.969Z,20.05
2023-07-25T07:47:20.867Z,18.70
2023-07-25T07:52:37.314Z,20.17
2023-07-25T07:57:49.313Z,18.99
2023-07-25T08:02:56.696Z,22.70
2023-07-25T08:08:00.485Z,22.40
2023-07-25T08:13:04.127Z,21.56
2023-07-25T08:18:09.294Z,19.82
2023-07-25T08:23:12.858Z,25.34
2023-07-25T08:28:18.641Z,24.45
2023-07-25T08:33:26.403Z,15.13
2023-07-25T08:38:32.480Z,22.19
2023-07-25T08:43:44.896Z,18.10
2023-07-25T08:48:50.242Z,16.64
2023-07-25T08:54:04.360Z,19.52
2023-07-25T08:59:09.392Z,13.78
2023-07-25T09:04:14.971Z,15.93
2023-07-25T09:09:18.671Z,17.87
2023-07-25T09:14:25.620Z,15.80
2023-07-25T09:19:31.908Z,15.65
2023-07-25T09:24:38.892Z,17.67
2023-07-25T09:29:42.879Z,16.89
2023-07-25T09:34:48.078Z,16.71
2023-07-25T09:39:52.848Z,17.41
2023-07-25T09:44:58.965Z,14.30
2023-07-25T09:50:05.253Z,13.90
2023-07-25T09:55:09.148Z,13.04
2023-07-25T10:00:15.608Z,7.05
2023-07-25T10:05:23.629Z,6.18
2023-07-25T10:10:30.525Z,5.52
2023-07-25T10:15:34.134Z,7.56
2023-07-25T10:20:39.452Z,7.21
2023-07-25T10:25:43.229Z,6.88
2023-07-25T10:30:49.910Z,8.29
2023-07-25T10:35:55.672Z,6.45
2023-07-25T10:41:03.046Z,6.38
2023-07-25T10:46:08.217Z,7.21
2023-07-25T10:51:17.714Z,5.48
2023-07-25T10:56:21.428Z,6.68
2023-07-25T11:01:38.782Z,6.38
2023-07-25T11:06:43.627Z,6.80
2023-07-25T11:11:48.039Z,9.65
2023-07-25T11:16:53.337Z,7.07
2023-07-25T11:21:58.508Z,6.83
2023-07-25T11:27:05.391Z,6.30
2023-07-25T11:32:11.259Z,7.53
2023-07-25T11:37:18.074Z,7.36
2023-07-25T11:42:23.877Z,13.52
2023-07-25T11:47:27.620Z,7.75
2023-07-25T11:52:32.898Z,1031.24
2023-07-25T11:57:40.489Z,13095.54
2023-07-25T12:02:47.431Z,12864.88
2023-07-25T12:07:53.484Z,12772.58
2023-07-25T12:12:57.689Z,12659.16
2023-07-25T12:18:02.986Z,12592.58
2023-07-25T12:23:09.200Z,12628.39
2023-07-25T12:28:16.042Z,12492.98
2023-07-25T12:33:24.397Z,12443.46
2023-07-25T12:38:36.420Z,12551.75
2023-07-25T12:43:42.230Z,12533.75
2023-07-25T12:48:45.813Z,12477.59
2023-07-25T12:53:50.823Z,12398.85
2023-07-25T12:58:55.664Z,12393.68
2023-07-25T13:03:59.392Z,12593.79
2023-07-25T13:09:07.076Z,12493.63
2023-07-25T13:14:10.745Z,12364.55
2023-07-25T13:19:17.573Z,11984.08
2023-07-25T13:24:24.997Z,11887.10
2023-07-25T13:29:31.944Z,11981.13
2023-07-25T13:34:37.861Z,12570.27
2023-07-25T13:39:42.901Z,12321.73
2023-07-25T13:44:46.537Z,12189.27
2023-07-25T13:49:50.108Z,12155.29
2023-07-25T13:54:55.090Z,12102.14
2023-07-25T13:59:58.730Z,12042.47
2023-07-25T14:05:02.337Z,12001.40
2023-07-25T14:10:08.121Z,11997.26
2023-07-25T14:15:12.110Z,11900.72
2023-07-25T14:20:15.904Z,11902.63
2023-07-25T14:25:20.961Z,11939.24
2023-07-25T14:30:24.812Z,11983.90
2023-07-25T14:35:28.653Z,11987.30
2023-07-25T14:40:33.708Z,12001.34
2023-07-25T14:45:37.588Z,12025.33
2023-07-25T14:50:44.175Z,12011.57
2023-07-25T14:55:50.198Z,12027.71
2023-07-25T15:00:54.053Z,12503.74
2023-07-25T15:05:57.776Z,12561.19
2023-07-25T15:11:03.005Z,12516.08
2023-07-25T15:16:06.569Z,12551.07
2023-07-25T15:21:15.745Z,12491.24
2023-07-25T15:26:20.725Z,12517.84
2023-07-25T15:31:24.393Z,12516.65
2023-07-25T15:36:30.375Z,12464.39
2023-07-25T15:41:35.385Z,12458.28
2023-07-25T15:46:39.056Z,12424.35
2023-07-25T15:51:42.872Z,12424.88
2023-07-25T15:56:50.447Z,12487.69
2023-07-25T16:01:54.302Z,12478.27
2023-07-25T16:06:59.975Z,12480.34
2023-07-25T16:12:05.374Z,12552.21
2023-07-25T16:17:09.066Z,12473.95
2023-07-25T16:22:17.563Z,12489.02
2023-07-25T16:27:22.596Z,12516.34
2023-07-25T16:32:29.337Z,12547.65
2023-07-25T16:37:32.945Z,12567.83
2023-07-25T16:42:41.563Z,12487.98
2023-07-25T16:47:47.656Z,12470.63
2023-07-25T16:52:51.554Z,12421.00
2023-07-25T16:57:57.040Z,12456.08
2023-07-25T17:03:03.075Z,12624.94
2023-07-25T17:08:09.997Z,12595.93
2023-07-25T17:13:16.105Z,12514.28
2023-07-25T17:18:19.995Z,12837.70
2023-07-25T17:23:23.760Z,14510.43
2023-07-25T17:28:31.836Z,14326.58
2023-07-25T17:33:35.838Z,14390.07
2023-07-25T17:38:41.637Z,14372.91
2023-07-25T17:43:49.579Z,14127.73
2023-07-25T17:48:54.699Z,8543.99
2023-07-25T17:53:58.431Z,980.82
2023-07-25T17:59:03.420Z,928.32
2023-07-25T18:04:11.866Z,922.73
2023-07-25T18:09:15.576Z,909.75
2023-07-25T18:14:20.709Z,895.82
2023-07-25T18:19:24.387Z,891.10
2023-07-25T18:24:28.163Z,881.64
2023-07-25T18:29:35.457Z,889.19
2023-07-25T18:34:42.229Z,874.56
2023-07-25T18:39:45.980Z,867.96
2023-07-25T18:44:53.479Z,904.09
2023-07-25T18:49:57.152Z,1072.17
2023-07-25T18:55:00.939Z,1338.40
2023-07-25T19:00:10.082Z,1263.64
2023-07-25T19:05:16.244Z,1259.28
2023-07-25T19:10:20.019Z,1267.65
2023-07-25T19:15:25.102Z,1268.83
2023-07-25T19:20:28.823Z,1220.38
2023-07-25T19:25:34.628Z,1221.64
2023-07-25T19:30:44.423Z,1208.27
2023-07-25T19:35:55.572Z,1194.33
2023-07-25T19:40:59.380Z,1178.96
2023-07-25T19:46:06.760Z,1181.59
2023-07-25T19:51:14.069Z,1175.49
2023-07-25T19:56:17.651Z,1173.07
2023-07-25T20:01:25.044Z,1177.80
2023-07-25T20:06:28.885Z,1171.95
2023-07-25T20:11:34.876Z,1194.78
2023-07-25T20:16:42.649Z,1213.68
2023-07-25T20:21:48.727Z,1216.77
2023-07-25T20:26:52.423Z,1200.67
2023-07-25T20:31:58.162Z,1174.41
2023-07-25T20:37:04.271Z,1240.62
2023-07-25T20:42:08.345Z,1672.86
2023-07-25T20:47:13.423Z,1451.30
2023-07-25T20:52:17.166Z,1421.03
2023-07-25T20:57:23.125Z,1415.73
2023-07-25T21:02:29.254Z,1442.31
2023-07-25T21:07:35.533Z,1466.16
2023-07-25T21:12:39.978Z,1473.18
2023-07-25T21:17:45.969Z,1375.57
2023-07-25T21:22:51.373Z,1395.77
2023-07-25T21:27:54.911Z,1353.64
2023-07-25T21:32:59.984Z,1348.41
2023-07-25T21:38:05.929Z,1358.98
2023-07-25T21:43:11.945Z,1343.74
2023-07-25T21:48:16.916Z,1317.91
2023-07-25T21:53:20.484Z,1288.94
2023-07-25T21:58:25.644Z,1458.30
2023-07-25T22:03:33.655Z,1631.92
2023-07-25T22:08:37.634Z,1578.76
2023-07-25T22:13:43.748Z,1597.23
2023-07-25T22:18:48.787Z,1425.90
2023-07-25T22:23:52.462Z,1399.78
2023-07-25T22:28:56.142Z,1399.40
2023-07-25T22:34:03.903Z,1409.58
2023-07-25T22:39:07.699Z,1386.53
2023-07-25T22:44:11.382Z,1372.78
2023-07-25T22:49:16.492Z,1412.89
2023-07-25T22:54:20.085Z,1460.62
2023-07-25T22:59:26.009Z,1412.40
2023-07-25T23:04:33.148Z,1358.17
2023-07-25T23:09:39.012Z,1434.55
2023-07-25T23:14:44.974Z,1482.85
2023-07-25T23:19:52.266Z,1458.87
2023-07-25T23:24:57.038Z,1461.84
2023-07-25T23:30:00.988Z,1447.75
2023-07-25T23:35:06.427Z,1432.86
2023-07-25T23:40:14.677Z,1351.20
2023-07-25T23:45:20.743Z,1340.99
2023-07-25T23:50:25.827Z,1377.47
2023-07-25T23:55:34.323Z,1345.81
